La Belle, Missouri
Current Conditions -  °F | °C
As of 7:11 AM on Sunday 23 Nov 2014 (Local Time) from KIRK Reporting Station
Light Rain Light Rain  
Wind Chill: 51°   Ceiling: 600
Heat Index: 51°   Visibility: 3mi
Dew Point: 50°   Wind: 8mph
Humidity: 96%   Direction: 150°SSE
Pressure: 29.59"   Gusts: NA
Location:  40.12°N, 91.91°W
Report Text: KIRK 231311Z AUTO 15007KT 3SM -RA BR OVC006 11/10 A2959 RMK AO2 CIG 005V011 P0005 T01060100
Loading
Personal Weather Stations






























Interactive Weather Map New forecast layout! Learn more

10-Day Weather Forecast

Advertisements
Track Severe Weather on mobile